sensor_id;sensor_type;location;lat;lon;timestamp;P1;durP1;ratioP1;P2;durP2;ratioP2
7471;SDS011;3777;48.722;8.110;2023-01-25T00:00:52;22.23;;;15.03;;
7471;SDS011;3777;48.722;8.110;2023-01-25T00:03:19;26.47;;;15.97;;
7471;SDS011;3777;48.722;8.110;2023-01-25T00:05:45;24.50;;;15.60;;
7471;SDS011;3777;48.722;8.110;2023-01-25T00:08:12;22.27;;;15.10;;
7471;SDS011;3777;48.722;8.110;2023-01-25T00:10:41;25.53;;;15.10;;
7471;SDS011;3777;48.722;8.110;2023-01-25T00:13:08;24.33;;;14.87;;
7471;SDS011;3777;48.722;8.110;2023-01-25T00:15:34;22.43;;;14.67;;
7471;SDS011;3777;48.722;8.110;2023-01-25T00:18:01;21.10;;;14.00;;
7471;SDS011;3777;48.722;8.110;2023-01-25T00:20:28;22.70;;;14.87;;
7471;SDS011;3777;48.722;8.110;2023-01-25T00:22:55;21.67;;;14.77;;
7471;SDS011;3777;48.722;8.110;2023-01-25T00:25:22;26.13;;;15.30;;
7471;SDS011;3777;48.722;8.110;2023-01-25T00:27:51;22.30;;;14.83;;
7471;SDS011;3777;48.722;8.110;2023-01-25T00:30:18;24.67;;;15.77;;
7471;SDS011;3777;48.722;8.110;2023-01-25T00:32:51;24.70;;;15.40;;
7471;SDS011;3777;48.722;8.110;2023-01-25T00:35:22;22.33;;;15.37;;
7471;SDS011;3777;48.722;8.110;2023-01-25T00:37:54;23.03;;;15.27;;
7471;SDS011;3777;48.722;8.110;2023-01-25T00:40:25;23.03;;;14.90;;
7471;SDS011;3777;48.722;8.110;2023-01-25T00:42:53;23.77;;;15.50;;
7471;SDS011;3777;48.722;8.110;2023-01-25T00:45:20;23.40;;;14.73;;
7471;SDS011;3777;48.722;8.110;2023-01-25T00:47:47;21.90;;;14.90;;
7471;SDS011;3777;48.722;8.110;2023-01-25T00:50:14;23.10;;;16.07;;
7471;SDS011;3777;48.722;8.110;2023-01-25T00:52:41;21.83;;;14.83;;
7471;SDS011;3777;48.722;8.110;2023-01-25T00:55:08;24.07;;;15.50;;
7471;SDS011;3777;48.722;8.110;2023-01-25T00:57:35;21.50;;;14.43;;
7471;SDS011;3777;48.722;8.110;2023-01-25T01:00:04;22.83;;;15.73;;
7471;SDS011;3777;48.722;8.110;2023-01-25T01:02:32;23.30;;;15.33;;
7471;SDS011;3777;48.722;8.110;2023-01-25T01:04:59;23.37;;;15.30;;
7471;SDS011;3777;48.722;8.110;2023-01-25T01:07:26;22.93;;;15.60;;
7471;SDS011;3777;48.722;8.110;2023-01-25T01:09:53;24.50;;;15.20;;
7471;SDS011;3777;48.722;8.110;2023-01-25T01:12:20;22.40;;;15.43;;
7471;SDS011;3777;48.722;8.110;2023-01-25T01:14:47;24.47;;;16.20;;
7471;SDS011;3777;48.722;8.110;2023-01-25T01:17:15;23.77;;;15.13;;
7471;SDS011;3777;48.722;8.110;2023-01-25T01:19:42;24.73;;;16.30;;
7471;SDS011;3777;48.722;8.110;2023-01-25T01:22:09;23.67;;;15.87;;
7471;SDS011;3777;48.722;8.110;2023-01-25T01:24:36;24.30;;;16.73;;
7471;SDS011;3777;48.722;8.110;2023-01-25T01:27:03;22.83;;;15.80;;
7471;SDS011;3777;48.722;8.110;2023-01-25T01:29:30;24.47;;;15.77;;
7471;SDS011;3777;48.722;8.110;2023-01-25T01:31:57;22.90;;;16.40;;
7471;SDS011;3777;48.722;8.110;2023-01-25T01:34:25;25.53;;;16.37;;
7471;SDS011;3777;48.722;8.110;2023-01-25T01:36:52;24.30;;;16.17;;
7471;SDS011;3777;48.722;8.110;2023-01-25T01:39:19;26.70;;;16.00;;
7471;SDS011;3777;48.722;8.110;2023-01-25T01:41:46;26.53;;;16.70;;
7471;SDS011;3777;48.722;8.110;2023-01-25T01:44:14;25.63;;;16.83;;
7471;SDS011;3777;48.722;8.110;2023-01-25T01:46:42;24.30;;;16.47;;
7471;SDS011;3777;48.722;8.110;2023-01-25T01:49:15;24.83;;;16.30;;
7471;SDS011;3777;48.722;8.110;2023-01-25T01:51:46;24.73;;;16.43;;
7471;SDS011;3777;48.722;8.110;2023-01-25T01:54:15;27.43;;;17.27;;
7471;SDS011;3777;48.722;8.110;2023-01-25T01:56:48;24.97;;;16.20;;
7471;SDS011;3777;48.722;8.110;2023-01-25T01:59:20;24.67;;;16.13;;
7471;SDS011;3777;48.722;8.110;2023-01-25T02:01:51;29.67;;;17.13;;
7471;SDS011;3777;48.722;8.110;2023-01-25T02:04:19;25.13;;;16.53;;
7471;SDS011;3777;48.722;8.110;2023-01-25T02:06:51;27.20;;;16.70;;
7471;SDS011;3777;48.722;8.110;2023-01-25T02:09:21;26.73;;;17.33;;
7471;SDS011;3777;48.722;8.110;2023-01-25T02:11:50;25.07;;;17.00;;
7471;SDS011;3777;48.722;8.110;2023-01-25T02:14:18;26.83;;;17.17;;
7471;SDS011;3777;48.722;8.110;2023-01-25T02:16:46;27.80;;;17.63;;
7471;SDS011;3777;48.722;8.110;2023-01-25T02:19:16;27.93;;;17.30;;
7471;SDS011;3777;48.722;8.110;2023-01-25T02:21:49;29.67;;;16.90;;
7471;SDS011;3777;48.722;8.110;2023-01-25T02:24:21;27.23;;;17.37;;
7471;SDS011;3777;48.722;8.110;2023-01-25T02:26:54;29.07;;;16.90;;
7471;SDS011;3777;48.722;8.110;2023-01-25T02:29:22;24.73;;;17.23;;
7471;SDS011;3777;48.722;8.110;2023-01-25T02:31:57;25.57;;;17.30;;
7471;SDS011;3777;48.722;8.110;2023-01-25T02:34:25;27.47;;;16.47;;
7471;SDS011;3777;48.722;8.110;2023-01-25T02:36:52;31.00;;;18.83;;
7471;SDS011;3777;48.722;8.110;2023-01-25T02:39:19;28.73;;;17.83;;
7471;SDS011;3777;48.722;8.110;2023-01-25T02:41:48;23.13;;;16.93;;
7471;SDS011;3777;48.722;8.110;2023-01-25T02:44:17;26.90;;;17.63;;
7471;SDS011;3777;48.722;8.110;2023-01-25T02:46:46;27.50;;;17.27;;
7471;SDS011;3777;48.722;8.110;2023-01-25T02:49:13;30.77;;;18.47;;
7471;SDS011;3777;48.722;8.110;2023-01-25T02:51:41;28.13;;;17.73;;
7471;SDS011;3777;48.722;8.110;2023-01-25T02:54:10;32.50;;;18.43;;
7471;SDS011;3777;48.722;8.110;2023-01-25T02:56:38;29.93;;;17.67;;
7471;SDS011;3777;48.722;8.110;2023-01-25T02:59:05;26.77;;;17.10;;
7471;SDS011;3777;48.722;8.110;2023-01-25T03:01:34;30.70;;;18.53;;
7471;SDS011;3777;48.722;8.110;2023-01-25T03:04:03;30.97;;;17.83;;
7471;SDS011;3777;48.722;8.110;2023-01-25T03:06:30;29.30;;;18.13;;
7471;SDS011;3777;48.722;8.110;2023-01-25T03:08:58;31.23;;;19.03;;
7471;SDS011;3777;48.722;8.110;2023-01-25T03:11:25;28.03;;;18.07;;
7471;SDS011;3777;48.722;8.110;2023-01-25T03:13:52;29.33;;;18.23;;
7471;SDS011;3777;48.722;8.110;2023-01-25T03:16:19;32.13;;;19.23;;
7471;SDS011;3777;48.722;8.110;2023-01-25T03:18:47;29.00;;;18.90;;
7471;SDS011;3777;48.722;8.110;2023-01-25T03:21:15;32.10;;;18.93;;
7471;SDS011;3777;48.722;8.110;2023-01-25T03:23:43;29.00;;;17.80;;
7471;SDS011;3777;48.722;8.110;2023-01-25T03:26:12;30.43;;;18.50;;
7471;SDS011;3777;48.722;8.110;2023-01-25T03:28:40;28.57;;;17.90;;
7471;SDS011;3777;48.722;8.110;2023-01-25T03:31:09;28.47;;;17.93;;
7471;SDS011;3777;48.722;8.110;2023-01-25T03:33:37;28.77;;;17.97;;
7471;SDS011;3777;48.722;8.110;2023-01-25T03:36:06;29.13;;;19.07;;
7471;SDS011;3777;48.722;8.110;2023-01-25T03:38:34;28.57;;;17.93;;
7471;SDS011;3777;48.722;8.110;2023-01-25T03:41:01;31.07;;;18.60;;
7471;SDS011;3777;48.722;8.110;2023-01-25T03:43:29;29.50;;;18.00;;
7471;SDS011;3777;48.722;8.110;2023-01-25T03:45:56;31.97;;;18.00;;
7471;SDS011;3777;48.722;8.110;2023-01-25T03:48:26;31.60;;;18.63;;
7471;SDS011;3777;48.722;8.110;2023-01-25T03:50:54;27.60;;;17.03;;
7471;SDS011;3777;48.722;8.110;2023-01-25T03:53:24;29.33;;;17.50;;
7471;SDS011;3777;48.722;8.110;2023-01-25T03:55:55;28.70;;;17.43;;
7471;SDS011;3777;48.722;8.110;2023-01-25T03:58:23;29.07;;;18.87;;
7471;SDS011;3777;48.722;8.110;2023-01-25T04:00:50;30.27;;;18.23;;
7471;SDS011;3777;48.722;8.110;2023-01-25T04:03:19;31.37;;;18.00;;
7471;SDS011;3777;48.722;8.110;2023-01-25T04:05:46;31.43;;;17.10;;
7471;SDS011;3777;48.722;8.110;2023-01-25T04:08:13;30.10;;;18.00;;
7471;SDS011;3777;48.722;8.110;2023-01-25T04:10:42;29.13;;;17.57;;
7471;SDS011;3777;48.722;8.110;2023-01-25T04:13:09;31.03;;;19.73;;
7471;SDS011;3777;48.722;8.110;2023-01-25T04:15:36;31.63;;;18.87;;
7471;SDS011;3777;48.722;8.110;2023-01-25T04:18:03;31.97;;;18.77;;
7471;SDS011;3777;48.722;8.110;2023-01-25T04:20:30;36.27;;;19.50;;
7471;SDS011;3777;48.722;8.110;2023-01-25T04:22:57;32.23;;;19.40;;
7471;SDS011;3777;48.722;8.110;2023-01-25T04:25:25;32.90;;;19.43;;
7471;SDS011;3777;48.722;8.110;2023-01-25T04:27:53;33.00;;;19.53;;
7471;SDS011;3777;48.722;8.110;2023-01-25T04:30:20;32.53;;;19.40;;
7471;SDS011;3777;48.722;8.110;2023-01-25T04:32:47;32.47;;;19.03;;
7471;SDS011;3777;48.722;8.110;2023-01-25T04:35:14;32.50;;;19.80;;
7471;SDS011;3777;48.722;8.110;2023-01-25T04:37:41;30.57;;;19.20;;
7471;SDS011;3777;48.722;8.110;2023-01-25T04:40:09;33.47;;;19.27;;
7471;SDS011;3777;48.722;8.110;2023-01-25T04:42:36;31.83;;;18.70;;
7471;SDS011;3777;48.722;8.110;2023-01-25T04:45:05;31.83;;;18.50;;
7471;SDS011;3777;48.722;8.110;2023-01-25T04:47:32;34.37;;;20.67;;
7471;SDS011;3777;48.722;8.110;2023-01-25T04:49:59;35.40;;;20.80;;
7471;SDS011;3777;48.722;8.110;2023-01-25T04:52:26;33.67;;;19.93;;
7471;SDS011;3777;48.722;8.110;2023-01-25T04:54:53;35.73;;;19.30;;
7471;SDS011;3777;48.722;8.110;2023-01-25T04:57:20;36.50;;;21.67;;
7471;SDS011;3777;48.722;8.110;2023-01-25T04:59:47;36.40;;;21.00;;
7471;SDS011;3777;48.722;8.110;2023-01-25T05:02:15;37.53;;;21.77;;
7471;SDS011;3777;48.722;8.110;2023-01-25T05:04:42;35.73;;;21.33;;
7471;SDS011;3777;48.722;8.110;2023-01-25T05:07:09;32.13;;;20.10;;
7471;SDS011;3777;48.722;8.110;2023-01-25T05:09:36;34.37;;;20.60;;
7471;SDS011;3777;48.722;8.110;2023-01-25T05:12:03;35.03;;;21.37;;
7471;SDS011;3777;48.722;8.110;2023-01-25T05:14:35;35.37;;;19.97;;
7471;SDS011;3777;48.722;8.110;2023-01-25T05:17:02;34.30;;;20.67;;
7471;SDS011;3777;48.722;8.110;2023-01-25T05:19:31;38.13;;;21.43;;
7471;SDS011;3777;48.722;8.110;2023-01-25T05:21:58;32.83;;;19.93;;
7471;SDS011;3777;48.722;8.110;2023-01-25T05:24:25;33.67;;;20.80;;
7471;SDS011;3777;48.722;8.110;2023-01-25T05:26:53;34.57;;;20.30;;
7471;SDS011;3777;48.722;8.110;2023-01-25T05:29:27;38.10;;;23.03;;
7471;SDS011;3777;48.722;8.110;2023-01-25T05:31:55;33.93;;;20.80;;
7471;SDS011;3777;48.722;8.110;2023-01-25T05:34:22;36.43;;;20.97;;
7471;SDS011;3777;48.722;8.110;2023-01-25T05:36:51;32.50;;;20.00;;
7471;SDS011;3777;48.722;8.110;2023-01-25T05:39:18;32.53;;;19.53;;
7471;SDS011;3777;48.722;8.110;2023-01-25T05:41:45;35.63;;;20.00;;
7471;SDS011;3777;48.722;8.110;2023-01-25T05:44:12;39.80;;;20.27;;
7471;SDS011;3777;48.722;8.110;2023-01-25T05:46:39;35.37;;;21.00;;
7471;SDS011;3777;48.722;8.110;2023-01-25T05:49:06;36.43;;;20.50;;
7471;SDS011;3777;48.722;8.110;2023-01-25T05:51:33;33.60;;;20.27;;
7471;SDS011;3777;48.722;8.110;2023-01-25T05:54:02;35.23;;;20.27;;
7471;SDS011;3777;48.722;8.110;2023-01-25T05:56:29;34.37;;;20.13;;
7471;SDS011;3777;48.722;8.110;2023-01-25T05:58:57;34.27;;;20.43;;
7471;SDS011;3777;48.722;8.110;2023-01-25T06:01:25;39.80;;;21.07;;
7471;SDS011;3777;48.722;8.110;2023-01-25T06:03:53;35.77;;;20.83;;
7471;SDS011;3777;48.722;8.110;2023-01-25T06:06:20;31.10;;;19.23;;
7471;SDS011;3777;48.722;8.110;2023-01-25T06:08:48;36.73;;;20.97;;
7471;SDS011;3777;48.722;8.110;2023-01-25T06:11:17;35.83;;;20.67;;
7471;SDS011;3777;48.722;8.110;2023-01-25T06:13:45;31.13;;;20.00;;
7471;SDS011;3777;48.722;8.110;2023-01-25T06:16:13;34.80;;;20.30;;
7471;SDS011;3777;48.722;8.110;2023-01-25T06:18:40;34.17;;;19.73;;
7471;SDS011;3777;48.722;8.110;2023-01-25T06:21:08;33.17;;;19.33;;
7471;SDS011;3777;48.722;8.110;2023-01-25T06:23:35;32.27;;;19.30;;
7471;SDS011;3777;48.722;8.110;2023-01-25T06:26:03;33.57;;;19.97;;
7471;SDS011;3777;48.722;8.110;2023-01-25T06:28:33;31.43;;;19.07;;
7471;SDS011;3777;48.722;8.110;2023-01-25T06:31:04;32.07;;;19.77;;
7471;SDS011;3777;48.722;8.110;2023-01-25T06:33:32;34.30;;;18.97;;
7471;SDS011;3777;48.722;8.110;2023-01-25T06:36:00;30.67;;;19.40;;
7471;SDS011;3777;48.722;8.110;2023-01-25T06:38:28;30.70;;;18.40;;
7471;SDS011;3777;48.722;8.110;2023-01-25T06:40:59;32.23;;;19.13;;
7471;SDS011;3777;48.722;8.110;2023-01-25T06:43:26;33.57;;;19.53;;
7471;SDS011;3777;48.722;8.110;2023-01-25T06:45:57;34.63;;;19.67;;
7471;SDS011;3777;48.722;8.110;2023-01-25T06:48:25;31.47;;;18.33;;
7471;SDS011;3777;48.722;8.110;2023-01-25T06:50:53;34.00;;;18.90;;
7471;SDS011;3777;48.722;8.110;2023-01-25T06:53:22;31.30;;;18.87;;
7471;SDS011;3777;48.722;8.110;2023-01-25T06:55:55;32.43;;;18.80;;
7471;SDS011;3777;48.722;8.110;2023-01-25T06:58:23;32.03;;;18.70;;
7471;SDS011;3777;48.722;8.110;2023-01-25T07:00:51;33.80;;;18.80;;
7471;SDS011;3777;48.722;8.110;2023-01-25T07:03:19;29.50;;;18.30;;
7471;SDS011;3777;48.722;8.110;2023-01-25T07:05:46;31.20;;;19.40;;
7471;SDS011;3777;48.722;8.110;2023-01-25T07:08:15;32.60;;;19.07;;
7471;SDS011;3777;48.722;8.110;2023-01-25T07:10:42;31.27;;;17.97;;
7471;SDS011;3777;48.722;8.110;2023-01-25T07:13:09;31.27;;;18.30;;
7471;SDS011;3777;48.722;8.110;2023-01-25T07:15:36;32.73;;;17.13;;
7471;SDS011;3777;48.722;8.110;2023-01-25T07:18:03;33.60;;;18.67;;
7471;SDS011;3777;48.722;8.110;2023-01-25T07:20:31;29.57;;;17.33;;
7471;SDS011;3777;48.722;8.110;2023-01-25T07:22:58;29.03;;;17.60;;
7471;SDS011;3777;48.722;8.110;2023-01-25T07:25:25;30.53;;;17.93;;
7471;SDS011;3777;48.722;8.110;2023-01-25T07:27:52;30.97;;;18.07;;
7471;SDS011;3777;48.722;8.110;2023-01-25T07:30:19;28.80;;;17.57;;
7471;SDS011;3777;48.722;8.110;2023-01-25T07:32:46;30.83;;;17.37;;
7471;SDS011;3777;48.722;8.110;2023-01-25T07:35:13;33.73;;;17.63;;
7471;SDS011;3777;48.722;8.110;2023-01-25T07:37:42;29.90;;;17.00;;
7471;SDS011;3777;48.722;8.110;2023-01-25T07:40:09;29.53;;;17.67;;
7471;SDS011;3777;48.722;8.110;2023-01-25T07:42:37;27.33;;;16.73;;
7471;SDS011;3777;48.722;8.110;2023-01-25T07:45:04;29.43;;;17.63;;
7471;SDS011;3777;48.722;8.110;2023-01-25T07:47:32;29.63;;;16.90;;
7471;SDS011;3777;48.722;8.110;2023-01-25T07:49:59;33.57;;;19.73;;
7471;SDS011;3777;48.722;8.110;2023-01-25T07:52:26;28.73;;;16.60;;
7471;SDS011;3777;48.722;8.110;2023-01-25T07:54:54;29.07;;;17.17;;
7471;SDS011;3777;48.722;8.110;2023-01-25T07:57:21;30.33;;;17.47;;
7471;SDS011;3777;48.722;8.110;2023-01-25T07:59:49;32.17;;;17.57;;
7471;SDS011;3777;48.722;8.110;2023-01-25T08:02:16;27.87;;;17.90;;
7471;SDS011;3777;48.722;8.110;2023-01-25T08:04:43;30.57;;;17.67;;
7471;SDS011;3777;48.722;8.110;2023-01-25T08:07:10;29.63;;;18.03;;
7471;SDS011;3777;48.722;8.110;2023-01-25T08:09:37;28.17;;;17.40;;
7471;SDS011;3777;48.722;8.110;2023-01-25T08:12:06;32.47;;;19.07;;
7471;SDS011;3777;48.722;8.110;2023-01-25T08:14:33;28.90;;;17.07;;
7471;SDS011;3777;48.722;8.110;2023-01-25T08:17:02;27.83;;;17.13;;
7471;SDS011;3777;48.722;8.110;2023-01-25T08:19:29;28.30;;;16.83;;
7471;SDS011;3777;48.722;8.110;2023-01-25T08:21:56;27.67;;;17.53;;
7471;SDS011;3777;48.722;8.110;2023-01-25T08:24:23;30.00;;;17.00;;
7471;SDS011;3777;48.722;8.110;2023-01-25T08:26:50;29.43;;;16.30;;
7471;SDS011;3777;48.722;8.110;2023-01-25T08:29:18;29.33;;;17.63;;
7471;SDS011;3777;48.722;8.110;2023-01-25T08:31:45;30.23;;;17.77;;
7471;SDS011;3777;48.722;8.110;2023-01-25T08:34:12;28.10;;;16.70;;
7471;SDS011;3777;48.722;8.110;2023-01-25T08:36:40;25.90;;;15.47;;
7471;SDS011;3777;48.722;8.110;2023-01-25T08:39:07;29.23;;;17.03;;
7471;SDS011;3777;48.722;8.110;2023-01-25T08:41:35;27.00;;;15.50;;
7471;SDS011;3777;48.722;8.110;2023-01-25T08:44:02;28.23;;;16.03;;
7471;SDS011;3777;48.722;8.110;2023-01-25T08:46:31;23.73;;;15.67;;
7471;SDS011;3777;48.722;8.110;2023-01-25T08:48:59;26.33;;;16.93;;
7471;SDS011;3777;48.722;8.110;2023-01-25T08:51:27;26.97;;;15.87;;
7471;SDS011;3777;48.722;8.110;2023-01-25T08:53:56;24.97;;;15.47;;
7471;SDS011;3777;48.722;8.110;2023-01-25T08:56:27;26.10;;;15.40;;
7471;SDS011;3777;48.722;8.110;2023-01-25T08:58:54;25.70;;;15.40;;
7471;SDS011;3777;48.722;8.110;2023-01-25T09:01:21;29.40;;;16.40;;
7471;SDS011;3777;48.722;8.110;2023-01-25T09:03:49;24.00;;;14.57;;
7471;SDS011;3777;48.722;8.110;2023-01-25T09:06:16;24.47;;;14.70;;
7471;SDS011;3777;48.722;8.110;2023-01-25T09:08:45;28.33;;;16.63;;
7471;SDS011;3777;48.722;8.110;2023-01-25T09:11:12;25.30;;;16.53;;
7471;SDS011;3777;48.722;8.110;2023-01-25T09:13:41;25.50;;;15.63;;
7471;SDS011;3777;48.722;8.110;2023-01-25T09:16:09;25.37;;;15.57;;
7471;SDS011;3777;48.722;8.110;2023-01-25T09:18:38;22.53;;;15.10;;
7471;SDS011;3777;48.722;8.110;2023-01-25T09:21:07;24.33;;;14.93;;
7471;SDS011;3777;48.722;8.110;2023-01-25T09:23:36;22.90;;;14.87;;
7471;SDS011;3777;48.722;8.110;2023-01-25T09:26:03;25.07;;;15.43;;
7471;SDS011;3777;48.722;8.110;2023-01-25T09:28:31;23.40;;;15.07;;
7471;SDS011;3777;48.722;8.110;2023-01-25T09:30:59;24.73;;;15.57;;
7471;SDS011;3777;48.722;8.110;2023-01-25T09:33:27;24.30;;;14.93;;
7471;SDS011;3777;48.722;8.110;2023-01-25T09:35:56;21.37;;;14.17;;
7471;SDS011;3777;48.722;8.110;2023-01-25T09:38:24;24.03;;;15.07;;
7471;SDS011;3777;48.722;8.110;2023-01-25T09:40:56;22.33;;;14.80;;
7471;SDS011;3777;48.722;8.110;2023-01-25T09:43:33;22.27;;;13.87;;
7471;SDS011;3777;48.722;8.110;2023-01-25T09:46:13;20.63;;;13.67;;
7471;SDS011;3777;48.722;8.110;2023-01-25T09:48:49;23.97;;;14.10;;
7471;SDS011;3777;48.722;8.110;2023-01-25T09:51:25;23.23;;;13.63;;
7471;SDS011;3777;48.722;8.110;2023-01-25T09:54:00;23.83;;;13.43;;
7471;SDS011;3777;48.722;8.110;2023-01-25T09:56:28;22.40;;;14.17;;
7471;SDS011;3777;48.722;8.110;2023-01-25T09:58:59;20.53;;;13.47;;
7471;SDS011;3777;48.722;8.110;2023-01-25T10:01:32;23.27;;;14.40;;
7471;SDS011;3777;48.722;8.110;2023-01-25T10:04:05;23.20;;;14.10;;
7471;SDS011;3777;48.722;8.110;2023-01-25T10:06:38;22.23;;;14.03;;
7471;SDS011;3777;48.722;8.110;2023-01-25T10:09:12;20.57;;;13.77;;
7471;SDS011;3777;48.722;8.110;2023-01-25T10:11:47;22.20;;;14.33;;
7471;SDS011;3777;48.722;8.110;2023-01-25T10:14:17;20.33;;;13.03;;
7471;SDS011;3777;48.722;8.110;2023-01-25T10:16:50;20.30;;;13.33;;
7471;SDS011;3777;48.722;8.110;2023-01-25T10:19:24;22.10;;;13.13;;
7471;SDS011;3777;48.722;8.110;2023-01-25T10:22:03;22.93;;;13.77;;
7471;SDS011;3777;48.722;8.110;2023-01-25T10:24:55;21.63;;;13.87;;
7471;SDS011;3777;48.722;8.110;2023-01-25T10:27:38;21.97;;;13.90;;
7471;SDS011;3777;48.722;8.110;2023-01-25T10:30:19;22.07;;;14.23;;
7471;SDS011;3777;48.722;8.110;2023-01-25T10:32:51;22.27;;;13.80;;
7471;SDS011;3777;48.722;8.110;2023-01-25T10:35:22;24.37;;;14.80;;
7471;SDS011;3777;48.722;8.110;2023-01-25T10:37:52;21.53;;;13.73;;
7471;SDS011;3777;48.722;8.110;2023-01-25T10:40:22;22.77;;;13.77;;
7471;SDS011;3777;48.722;8.110;2023-01-25T10:42:52;21.37;;;13.53;;
7471;SDS011;3777;48.722;8.110;2023-01-25T10:45:23;24.30;;;14.57;;
7471;SDS011;3777;48.722;8.110;2023-01-25T10:47:51;21.67;;;13.80;;
7471;SDS011;3777;48.722;8.110;2023-01-25T10:53:22;20.17;;;13.20;;
7471;SDS011;3777;48.722;8.110;2023-01-25T10:58:48;22.53;;;13.67;;
7471;SDS011;3777;48.722;8.110;2023-01-25T11:01:25;22.23;;;13.83;;
7471;SDS011;3777;48.722;8.110;2023-01-25T11:03:54;21.47;;;13.90;;
7471;SDS011;3777;48.722;8.110;2023-01-25T11:06:28;20.40;;;13.43;;
7471;SDS011;3777;48.722;8.110;2023-01-25T11:08:57;22.47;;;13.27;;
7471;SDS011;3777;48.722;8.110;2023-01-25T11:11:26;21.20;;;13.47;;
7471;SDS011;3777;48.722;8.110;2023-01-25T11:13:59;19.27;;;12.80;;
7471;SDS011;3777;48.722;8.110;2023-01-25T11:16:29;19.33;;;12.90;;
7471;SDS011;3777;48.722;8.110;2023-01-25T11:18:58;24.50;;;12.97;;
7471;SDS011;3777;48.722;8.110;2023-01-25T11:21:27;21.13;;;13.07;;
7471;SDS011;3777;48.722;8.110;2023-01-25T11:24:14;18.57;;;12.87;;
7471;SDS011;3777;48.722;8.110;2023-01-25T11:26:44;21.00;;;12.10;;
7471;SDS011;3777;48.722;8.110;2023-01-25T11:29:13;17.50;;;12.70;;
7471;SDS011;3777;48.722;8.110;2023-01-25T11:31:42;19.57;;;12.87;;
7471;SDS011;3777;48.722;8.110;2023-01-25T11:34:11;20.93;;;12.73;;
7471;SDS011;3777;48.722;8.110;2023-01-25T11:36:50;20.40;;;12.77;;
7471;SDS011;3777;48.722;8.110;2023-01-25T11:39:32;21.77;;;12.63;;
7471;SDS011;3777;48.722;8.110;2023-01-25T11:42:14;20.77;;;13.13;;
7471;SDS011;3777;48.722;8.110;2023-01-25T11:45:00;19.80;;;12.43;;
7471;SDS011;3777;48.722;8.110;2023-01-25T11:47:42;19.27;;;12.17;;
7471;SDS011;3777;48.722;8.110;2023-01-25T11:50:21;19.13;;;12.33;;
7471;SDS011;3777;48.722;8.110;2023-01-25T11:52:57;19.20;;;12.50;;
7471;SDS011;3777;48.722;8.110;2023-01-25T11:55:42;18.87;;;13.20;;
7471;SDS011;3777;48.722;8.110;2023-01-25T11:58:23;18.23;;;12.90;;
7471;SDS011;3777;48.722;8.110;2023-01-25T12:01:13;18.60;;;12.47;;
7471;SDS011;3777;48.722;8.110;2023-01-25T12:03:55;20.27;;;12.80;;
7471;SDS011;3777;48.722;8.110;2023-01-25T12:06:41;17.17;;;12.33;;
7471;SDS011;3777;48.722;8.110;2023-01-25T12:09:20;18.73;;;12.33;;
7471;SDS011;3777;48.722;8.110;2023-01-25T12:11:58;19.27;;;12.80;;
7471;SDS011;3777;48.722;8.110;2023-01-25T12:14:47;18.10;;;12.37;;
7471;SDS011;3777;48.722;8.110;2023-01-25T12:17:30;19.23;;;12.83;;
7471;SDS011;3777;48.722;8.110;2023-01-25T12:20:21;20.57;;;12.97;;
7471;SDS011;3777;48.722;8.110;2023-01-25T12:23:07;21.83;;;12.73;;
7471;SDS011;3777;48.722;8.110;2023-01-25T12:25:53;19.60;;;12.90;;
7471;SDS011;3777;48.722;8.110;2023-01-25T12:28:30;21.57;;;13.73;;
7471;SDS011;3777;48.722;8.110;2023-01-25T12:31:04;18.20;;;12.57;;
7471;SDS011;3777;48.722;8.110;2023-01-25T12:33:37;21.90;;;13.37;;
7471;SDS011;3777;48.722;8.110;2023-01-25T12:36:09;17.77;;;11.73;;
7471;SDS011;3777;48.722;8.110;2023-01-25T12:38:40;18.20;;;11.50;;
7471;SDS011;3777;48.722;8.110;2023-01-25T12:41:17;17.10;;;11.87;;
7471;SDS011;3777;48.722;8.110;2023-01-25T12:43:52;18.47;;;13.07;;
7471;SDS011;3777;48.722;8.110;2023-01-25T12:46:29;19.07;;;11.80;;
7471;SDS011;3777;48.722;8.110;2023-01-25T12:49:00;18.40;;;11.97;;
7471;SDS011;3777;48.722;8.110;2023-01-25T12:51:35;17.13;;;12.20;;
7471;SDS011;3777;48.722;8.110;2023-01-25T12:54:05;16.90;;;11.00;;
7471;SDS011;3777;48.722;8.110;2023-01-25T12:56:41;15.80;;;11.30;;
7471;SDS011;3777;48.722;8.110;2023-01-25T12:59:13;18.40;;;12.53;;
7471;SDS011;3777;48.722;8.110;2023-01-25T13:01:48;18.13;;;11.87;;
7471;SDS011;3777;48.722;8.110;2023-01-25T13:04:24;18.43;;;11.60;;
7471;SDS011;3777;48.722;8.110;2023-01-25T13:07:02;16.77;;;12.47;;
7471;SDS011;3777;48.722;8.110;2023-01-25T13:09:42;15.80;;;11.10;;
7471;SDS011;3777;48.722;8.110;2023-01-25T13:12:16;16.30;;;11.60;;
7471;SDS011;3777;48.722;8.110;2023-01-25T13:14:43;18.23;;;12.13;;
7471;SDS011;3777;48.722;8.110;2023-01-25T13:17:18;15.00;;;11.70;;
7471;SDS011;3777;48.722;8.110;2023-01-25T13:19:47;16.90;;;12.40;;
7471;SDS011;3777;48.722;8.110;2023-01-25T13:25:22;16.47;;;11.17;;
7471;SDS011;3777;48.722;8.110;2023-01-25T13:27:50;16.80;;;12.07;;
7471;SDS011;3777;48.722;8.110;2023-01-25T13:33:01;14.87;;;10.70;;
7471;SDS011;3777;48.722;8.110;2023-01-25T13:35:34;16.23;;;12.60;;
7471;SDS011;3777;48.722;8.110;2023-01-25T13:38:04;17.73;;;12.47;;
7471;SDS011;3777;48.722;8.110;2023-01-25T13:41:00;17.57;;;12.93;;
7471;SDS011;3777;48.722;8.110;2023-01-25T13:43:36;16.30;;;11.33;;
7471;SDS011;3777;48.722;8.110;2023-01-25T13:46:08;16.47;;;11.10;;
7471;SDS011;3777;48.722;8.110;2023-01-25T13:48:47;16.43;;;11.77;;
7471;SDS011;3777;48.722;8.110;2023-01-25T13:51:20;15.17;;;11.20;;
7471;SDS011;3777;48.722;8.110;2023-01-25T13:53:57;16.00;;;10.80;;
7471;SDS011;3777;48.722;8.110;2023-01-25T13:56:29;16.23;;;10.60;;
7471;SDS011;3777;48.722;8.110;2023-01-25T13:58:57;17.17;;;11.00;;
7471;SDS011;3777;48.722;8.110;2023-01-25T14:01:25;21.93;;;12.40;;
7471;SDS011;3777;48.722;8.110;2023-01-25T14:03:56;17.77;;;11.57;;
7471;SDS011;3777;48.722;8.110;2023-01-25T14:06:26;18.10;;;12.40;;
7471;SDS011;3777;48.722;8.110;2023-01-25T14:08:56;21.10;;;12.40;;
7471;SDS011;3777;48.722;8.110;2023-01-25T14:11:27;29.23;;;12.90;;
7471;SDS011;3777;48.722;8.110;2023-01-25T14:13:56;15.90;;;11.67;;
7471;SDS011;3777;48.722;8.110;2023-01-25T14:16:25;17.87;;;12.43;;
7471;SDS011;3777;48.722;8.110;2023-01-25T14:18:54;22.87;;;12.37;;
7471;SDS011;3777;48.722;8.110;2023-01-25T14:21:23;18.07;;;12.53;;
7471;SDS011;3777;48.722;8.110;2023-01-25T14:23:50;16.97;;;12.03;;
7471;SDS011;3777;48.722;8.110;2023-01-25T14:26:19;17.07;;;12.07;;
7471;SDS011;3777;48.722;8.110;2023-01-25T14:28:49;16.27;;;11.73;;
7471;SDS011;3777;48.722;8.110;2023-01-25T14:31:21;18.57;;;12.30;;
7471;SDS011;3777;48.722;8.110;2023-01-25T14:33:50;17.33;;;12.30;;
7471;SDS011;3777;48.722;8.110;2023-01-25T14:36:26;18.20;;;12.43;;
7471;SDS011;3777;48.722;8.110;2023-01-25T14:38:55;18.00;;;12.20;;
7471;SDS011;3777;48.722;8.110;2023-01-25T14:41:25;15.63;;;11.80;;
7471;SDS011;3777;48.722;8.110;2023-01-25T14:43:55;17.33;;;12.47;;
7471;SDS011;3777;48.722;8.110;2023-01-25T14:46:24;18.47;;;13.20;;
7471;SDS011;3777;48.722;8.110;2023-01-25T14:49:05;18.33;;;12.23;;
7471;SDS011;3777;48.722;8.110;2023-01-25T14:51:38;19.50;;;12.87;;
7471;SDS011;3777;48.722;8.110;2023-01-25T14:54:09;18.37;;;12.73;;
7471;SDS011;3777;48.722;8.110;2023-01-25T14:56:43;18.77;;;12.53;;
7471;SDS011;3777;48.722;8.110;2023-01-25T15:01:59;19.47;;;13.53;;
7471;SDS011;3777;48.722;8.110;2023-01-25T15:04:29;18.57;;;13.30;;
7471;SDS011;3777;48.722;8.110;2023-01-25T15:06:57;18.57;;;12.73;;
7471;SDS011;3777;48.722;8.110;2023-01-25T15:09:31;17.57;;;12.53;;
7471;SDS011;3777;48.722;8.110;2023-01-25T15:12:03;18.50;;;12.17;;
7471;SDS011;3777;48.722;8.110;2023-01-25T15:14:47;18.40;;;12.67;;
7471;SDS011;3777;48.722;8.110;2023-01-25T15:20:01;19.87;;;13.77;;
7471;SDS011;3777;48.722;8.110;2023-01-25T15:22:30;18.30;;;12.20;;